Lisa Ann II — WDB3573 — position and weather

sailwx.info

Track history (hours):
 
Tides and Currents Weather Stations Pressure Air Temp Water Temp Dewpoint Dewpoint Depression Visibility Wind Speed Wind Dir Waves Ship Positions

Lisa Ann II

Owner: FORD, JIM D, E KINGSTON, NH. More information available from US FCC via Universal Licensing System and Coast Guard Vessel Documentation Center.

Last reported at 2018-Feb-16 20:00 UTC. Time now 2018-Feb-18 09:06 UTC.
Position N 42°36' W 070°42'.

Length 17 m; draft 3 m.

Type: Fishing. MMSI: 366888690.

Wind from 320 at 5 knots

Barometer 1001.0 mb
Air temperature 9.8 ° C
Dewpoint 8.0 ° C

Date/timePositionNaut miles runAvg speedWind from/ knotsBaromVisibWave heightAir tempDewpointWater temp
2018-Feb-16 20:00N 42°36' W 070°42'4 4.4 320 / 51001.0 9.8 8.0
2018-Feb-16 19:00N 42°36' W 070°36'4 4.4 300 / 71001.0 8.1 8.0
2018-Feb-16 18:00N 42°36' W 070°30'7 7.4 290 / 41000.0 5.9 5.9
2018-Feb-16 17:00N 42°42' W 070°24'4 4.4 270 / 51000.0 5.9 5.8
2018-Feb-16 16:00N 42°42' W 070°18'0 0.0 250 / 41000.0 5.9 5.8
2018-Feb-16 15:00N 42°42' W 070°18'0 0.0 240 / 61001.0 5.8 5.7
2018-Feb-16 14:00N 42°42' W 070°18'6 6.0 200 / 71001.0 5.7 5.5
2018-Feb-16 13:00N 42°48' W 070°18'0 0.0 210 / 71002.0 5.7 5.4
2018-Feb-16 12:00N 42°48' W 070°18'6 3.0 220 / 31002.0 5.8 5.6
2018-Feb-16 10:00N 42°42' W 070°18'4 4.4 200 / 61001.0 5.7 5.6
2018-Feb-16 09:00N 42°42' W 070°24'11 5.3 200 / 91002.0 5.7 5.6
2018-Feb-16 07:00N 42°36' W 070°36'   210 / 71003.0 5.2 5.0
2018-Feb-13 20:00N 42°36' W 070°36'4 4.4 090 / 51044.0 -1.9-9.1
2018-Feb-13 19:00N 42°36' W 070°30'7 7.4 060 / 51044.0 -1.5-9.5
2018-Feb-13 18:00N 42°42' W 070°24'4 4.4 040 / 41045.0 -1.1-9.7
2018-Feb-13 17:00N 42°42' W 070°18'0 0.0 030 / 61046.0 -2.4-9.8
2018-Feb-13 16:00N 42°42' W 070°18'0 0.0 020 / 71046.0 -2.5-10.2
2018-Feb-13 15:00N 42°42' W 070°18'6 6.0 010 / 71046.0 -2.0-10.8
2018-Feb-13 14:00N 42°48' W 070°18'6 6.0 340 / 91046.0 -2.3-11.1
2018-Feb-13 13:00N 42°42' W 070°18'0 0.0 340 / 111045.0 -2.3-11.2
2018-Feb-13 12:00N 42°42' W 070°18'4 4.4 330 / 141044.0 -2.7-11.0
2018-Feb-13 11:00N 42°42' W 070°24'7 7.4 330 / 201043.0 -2.4-10.5
2018-Feb-13 10:00N 42°36' W 070°30'   330 / 211042.0 -2.2-10.1
2018-Feb-07 20:00N 42°36' W 070°42'4 4.4 120 / 121023.0 1.5 1.2
2018-Feb-07 19:00N 42°36' W 070°36'9 8.8 130 / 151025.0 1.4 0.8
2018-Feb-07 18:00N 42°36' W 070°24'7 7.4 130 / 131027.0 1.9 0.1
2018-Feb-07 17:00N 42°42' W 070°18'0 0.0 140 / 121030.0 2.6-2.3
2018-Feb-07 16:00N 42°42' W 070°18'0 0.0 120 / 111032.0 2.2-3.5
2018-Feb-07 15:00N 42°42' W 070°18'0 0.0 120 / 81034.0 1.8-4.8
2018-Feb-07 14:00N 42°42' W 070°18'0 0.0 110 / 91034.0 1.3-5.9
2018-Feb-07 13:00N 42°42' W 070°18'6 3.0 100 / 71034.0 0.7-7.1
2018-Feb-07 11:00N 42°48' W 070°18'7 3.7 060 / 41035.0 0.1-8.2
2018-Feb-07 09:00N 42°42' W 070°24'4 4.4 1035.0 -0.5-9.1
2018-Feb-07 08:00N 42°42' W 070°30'7 7.4 340 / 81036.0 -1.0-8.6
2018-Feb-07 07:00N 42°36' W 070°36'   320 / 61036.0 -2.5-8.7
Track history (hours):
 
Tides and Currents Weather Stations Pressure Air Temp Water Temp Dewpoint Dewpoint Depression Visibility Wind Speed Wind Dir Waves Ship Positions

Lisa Ann II

Owner: FORD, JIM D, E KINGSTON, NH. More information available from US FCC via Universal Licensing System and Coast Guard Vessel Documentation Center.

Last reported at 2018-Feb-16 20:00 UTC. Time now 2018-Feb-18 09:06 UTC.
Position N 42°36' W 070°42'.

Length 17 m; draft 3 m.

Type: Fishing. MMSI: 366888690.

Wind from 320 at 5 knots

Barometer 1001.0 mb
Air temperature 9.8 ° C
Dewpoint 8.0 ° C

Date/timePositionNaut miles runAvg speedWind from/ knotsBaromVisibWave heightAir tempDewpointWater temp
2018-Feb-16 20:00N 42°36' W 070°42'4 4.4 320 / 51001.0 9.8 8.0
2018-Feb-16 19:00N 42°36' W 070°36'4 4.4 300 / 71001.0 8.1 8.0
2018-Feb-16 18:00N 42°36' W 070°30'7 7.4 290 / 41000.0 5.9 5.9
2018-Feb-16 17:00N 42°42' W 070°24'4 4.4 270 / 51000.0 5.9 5.8
2018-Feb-16 16:00N 42°42' W 070°18'0 0.0 250 / 41000.0 5.9 5.8
2018-Feb-16 15:00N 42°42' W 070°18'0 0.0 240 / 61001.0 5.8 5.7
2018-Feb-16 14:00N 42°42' W 070°18'6 6.0 200 / 71001.0 5.7 5.5
2018-Feb-16 13:00N 42°48' W 070°18'0 0.0 210 / 71002.0 5.7 5.4
2018-Feb-16 12:00N 42°48' W 070°18'6 3.0 220 / 31002.0 5.8 5.6
2018-Feb-16 10:00N 42°42' W 070°18'4 4.4 200 / 61001.0 5.7 5.6
2018-Feb-16 09:00N 42°42' W 070°24'11 5.3 200 / 91002.0 5.7 5.6
2018-Feb-16 07:00N 42°36' W 070°36'   210 / 71003.0 5.2 5.0
2018-Feb-13 20:00N 42°36' W 070°36'4 4.4 090 / 51044.0 -1.9-9.1
2018-Feb-13 19:00N 42°36' W 070°30'7 7.4 060 / 51044.0 -1.5-9.5
2018-Feb-13 18:00N 42°42' W 070°24'4 4.4 040 / 41045.0 -1.1-9.7
2018-Feb-13 17:00N 42°42' W 070°18'0 0.0 030 / 61046.0 -2.4-9.8
2018-Feb-13 16:00N 42°42' W 070°18'0 0.0 020 / 71046.0 -2.5-10.2
2018-Feb-13 15:00N 42°42' W 070°18'6 6.0 010 / 71046.0 -2.0-10.8
2018-Feb-13 14:00N 42°48' W 070°18'6 6.0 340 / 91046.0 -2.3-11.1
2018-Feb-13 13:00N 42°42' W 070°18'0 0.0 340 / 111045.0 -2.3-11.2
2018-Feb-13 12:00N 42°42' W 070°18'4 4.4 330 / 141044.0 -2.7-11.0
2018-Feb-13 11:00N 42°42' W 070°24'7 7.4 330 / 201043.0 -2.4-10.5
2018-Feb-13 10:00N 42°36' W 070°30'   330 / 211042.0 -2.2-10.1
2018-Feb-07 20:00N 42°36' W 070°42'4 4.4 120 / 121023.0 1.5 1.2
2018-Feb-07 19:00N 42°36' W 070°36'9 8.8 130 / 151025.0 1.4 0.8
2018-Feb-07 18:00N 42°36' W 070°24'7 7.4 130 / 131027.0 1.9 0.1
2018-Feb-07 17:00N 42°42' W 070°18'0 0.0 140 / 121030.0 2.6-2.3
2018-Feb-07 16:00N 42°42' W 070°18'0 0.0 120 / 111032.0 2.2-3.5
2018-Feb-07 15:00N 42°42' W 070°18'0 0.0 120 / 81034.0 1.8-4.8
2018-Feb-07 14:00N 42°42' W 070°18'0 0.0 110 / 91034.0 1.3-5.9
2018-Feb-07 13:00N 42°42' W 070°18'6 3.0 100 / 71034.0 0.7-7.1
2018-Feb-07 11:00N 42°48' W 070°18'7 3.7 060 / 41035.0 0.1-8.2
2018-Feb-07 09:00N 42°42' W 070°24'4 4.4 1035.0 -0.5-9.1
2018-Feb-07 08:00N 42°42' W 070°30'7 7.4 340 / 81036.0 -1.0-8.6
2018-Feb-07 07:00N 42°36' W 070°36'   320 / 61036.0 -2.5-8.7

Dump ship's entire track history